createdAt,value
2023-03-24T00:01:03.220Z,5.10
2023-03-24T00:03:33.417Z,5.10
2023-03-24T00:06:03.657Z,5.10
2023-03-24T00:08:36.432Z,5.20
2023-03-24T00:11:06.672Z,5.10
2023-03-24T00:13:38.511Z,5.20
2023-03-24T00:16:08.342Z,5.20
2023-03-24T00:18:39.374Z,5.10
2023-03-24T00:21:08.992Z,5.10
2023-03-24T00:23:42.910Z,5.10
2023-03-24T00:26:12.559Z,5.10
2023-03-24T00:28:40.803Z,5.10
2023-03-24T00:31:10.083Z,5.20
2023-03-24T00:33:40.555Z,5.10
2023-03-24T00:36:12.057Z,5.20
2023-03-24T00:38:41.064Z,5.20
2023-03-24T00:41:10.748Z,5.20
2023-03-24T00:43:39.186Z,5.20
2023-03-24T00:46:08.497Z,5.30
2023-03-24T00:48:38.483Z,5.30
2023-03-24T00:51:11.148Z,5.30
2023-03-24T00:53:44.139Z,5.30
2023-03-24T00:56:15.772Z,5.30
2023-03-24T00:58:44.002Z,5.30
2023-03-24T01:01:12.310Z,5.30
2023-03-24T01:03:48.337Z,5.30
2023-03-24T01:06:18.615Z,5.40
2023-03-24T01:08:47.222Z,5.40
2023-03-24T01:11:16.643Z,5.40
2023-03-24T01:13:45.998Z,5.40
2023-03-24T01:16:14.929Z,5.40
2023-03-24T01:18:43.163Z,5.50
2023-03-24T01:21:12.520Z,5.50
2023-03-24T01:23:43.417Z,5.50
2023-03-24T01:26:12.208Z,5.50
2023-03-24T01:28:43.911Z,5.50
2023-03-24T01:31:12.519Z,5.50
2023-03-24T01:33:40.804Z,5.50
2023-03-24T01:36:09.447Z,5.50
2023-03-24T01:38:37.876Z,5.50
2023-03-24T01:41:07.964Z,5.50
2023-03-24T01:43:37.123Z,5.50
2023-03-24T01:46:08.767Z,5.50
2023-03-24T01:48:39.576Z,5.50
2023-03-24T01:51:10.948Z,5.50
2023-03-24T01:53:40.199Z,5.50
2023-03-24T01:56:10.973Z,5.50
2023-03-24T01:58:41.293Z,5.50
2023-03-24T02:01:09.976Z,5.50
2023-03-24T02:03:38.984Z,5.50
2023-03-24T02:06:08.754Z,5.50
2023-03-24T02:08:40.206Z,5.40
2023-03-24T02:11:10.151Z,5.40
2023-03-24T02:13:38.556Z,5.40
2023-03-24T02:16:18.716Z,5.40
2023-03-24T02:18:52.797Z,5.40
2023-03-24T02:21:39.697Z,5.40
2023-03-24T02:24:22.858Z,5.40
2023-03-24T02:26:57.346Z,5.40
2023-03-24T02:29:40.552Z,5.40
2023-03-24T02:32:14.161Z,5.30
2023-03-24T02:35:06.148Z,5.30
2023-03-24T02:37:49.619Z,5.30
2023-03-24T02:40:32.618Z,5.30
2023-03-24T02:43:14.800Z,5.30
2023-03-24T02:45:47.163Z,5.40
2023-03-24T02:48:20.825Z,5.40
2023-03-24T02:50:52.278Z,5.40
2023-03-24T02:53:23.668Z,5.40
2023-03-24T02:55:55.551Z,5.40
2023-03-24T02:58:29.283Z,5.40
2023-03-24T03:00:59.980Z,5.40
2023-03-24T03:03:30.243Z,5.40
2023-03-24T03:06:00.779Z,5.30
2023-03-24T03:08:30.694Z,5.30
2023-03-24T03:11:00.288Z,5.30
2023-03-24T03:13:32.613Z,5.30
2023-03-24T03:16:03.716Z,5.30
2023-03-24T03:18:36.612Z,5.30
2023-03-24T03:21:07.538Z,5.30
2023-03-24T03:23:37.143Z,5.30
2023-03-24T03:26:07.731Z,5.30
2023-03-24T03:28:39.769Z,5.30
2023-03-24T03:31:10.868Z,5.30
2023-03-24T03:33:40.938Z,5.30
2023-03-24T03:36:11.872Z,5.30
2023-03-24T03:38:43.624Z,5.30
2023-03-24T03:41:12.119Z,5.30
2023-03-24T03:43:44.187Z,5.20
2023-03-24T03:46:12.742Z,5.20
2023-03-24T03:48:41.743Z,5.20
2023-03-24T03:51:14.248Z,5.30
2023-03-24T03:53:46.505Z,5.30
2023-03-24T03:56:18.579Z,5.30
2023-03-24T03:58:49.196Z,5.30
2023-03-24T04:01:20.543Z,5.20
2023-03-24T04:04:04.029Z,5.20
2023-03-24T04:06:37.545Z,5.30
2023-03-24T04:09:11.262Z,5.30
2023-03-24T04:11:48.167Z,5.30
2023-03-24T04:14:26.664Z,5.30
2023-03-24T04:17:00.133Z,5.20
2023-03-24T04:19:40.342Z,5.20
2023-03-24T04:22:14.600Z,5.20
2023-03-24T04:24:50.466Z,5.20
2023-03-24T04:27:27.391Z,5.20
2023-03-24T04:30:02.769Z,5.20
2023-03-24T04:32:33.413Z,5.20
2023-03-24T04:35:03.701Z,5.20
2023-03-24T04:37:38.274Z,5.20
2023-03-24T04:40:08.600Z,5.10
2023-03-24T04:42:37.971Z,5.20
2023-03-24T04:45:09.094Z,5.20
2023-03-24T04:47:43.383Z,5.20
2023-03-24T04:50:13.350Z,5.20
2023-03-24T04:52:41.885Z,5.20
2023-03-24T04:55:27.848Z,5.20
2023-03-24T04:57:56.177Z,5.20
2023-03-24T05:00:26.107Z,5.20
2023-03-24T05:02:54.293Z,5.20
2023-03-24T05:05:22.482Z,5.20
2023-03-24T05:07:50.885Z,5.20
2023-03-24T05:10:21.785Z,5.20
2023-03-24T05:12:50.569Z,5.20
2023-03-24T05:15:18.809Z,5.20
2023-03-24T05:17:48.469Z,5.20
2023-03-24T05:20:16.733Z,5.20
2023-03-24T05:22:45.334Z,5.20
2023-03-24T05:25:13.638Z,5.20
2023-03-24T05:27:41.811Z,5.30
2023-03-24T05:30:10.618Z,5.30
2023-03-24T05:32:38.951Z,5.30
2023-03-24T05:35:08.952Z,5.30
2023-03-24T05:37:37.293Z,5.30
2023-03-24T05:40:07.201Z,5.40
2023-03-24T05:42:38.289Z,5.40
2023-03-24T05:45:07.166Z,5.30
2023-03-24T05:47:35.614Z,5.40
2023-03-24T05:50:03.784Z,5.40
2023-03-24T05:52:33.386Z,5.40
2023-03-24T05:55:01.682Z,5.40
2023-03-24T05:57:30.513Z,5.40
2023-03-24T06:00:00.547Z,5.40
2023-03-24T06:02:29.168Z,5.50
2023-03-24T06:04:57.898Z,5.50
2023-03-24T06:07:26.904Z,5.50
2023-03-24T06:09:58.334Z,5.50
2023-03-24T06:12:29.394Z,5.50
2023-03-24T06:14:57.674Z,5.50
2023-03-24T06:17:28.916Z,5.60
2023-03-24T06:20:03.029Z,5.60
2023-03-24T06:22:32.001Z,5.60
2023-03-24T06:25:02.604Z,5.60
2023-03-24T06:27:31.328Z,5.70
2023-03-24T06:29:59.628Z,5.70
2023-03-24T06:32:28.125Z,5.70
2023-03-24T06:34:56.352Z,5.70
2023-03-24T06:37:24.793Z,5.80
2023-03-24T06:39:53.254Z,5.80
2023-03-24T06:42:22.937Z,5.80
2023-03-24T06:44:51.492Z,5.80
2023-03-24T06:47:19.706Z,5.90
2023-03-24T06:49:47.963Z,5.90
2023-03-24T06:52:16.481Z,6.00
2023-03-24T06:54:44.688Z,6.00
2023-03-24T06:57:13.060Z,6.00
2023-03-24T06:59:42.771Z,6.10
2023-03-24T07:02:12.634Z,6.10
2023-03-24T07:04:40.791Z,6.10
2023-03-24T07:07:38.016Z,6.10
2023-03-24T07:09:57.045Z,6.00
2023-03-24T07:12:25.445Z,6.10
2023-03-24T07:14:55.831Z,6.10
2023-03-24T07:17:24.932Z,6.20
2023-03-24T07:19:53.462Z,6.20
2023-03-24T07:22:21.812Z,6.20
2023-03-24T07:24:49.992Z,6.20
2023-03-24T07:27:18.493Z,6.30
2023-03-24T07:29:46.835Z,6.30
2023-03-24T07:32:16.603Z,6.40
2023-03-24T07:34:45.904Z,6.40
2023-03-24T07:37:14.197Z,6.40
2023-03-24T07:39:42.526Z,6.40
2023-03-24T07:42:11.811Z,6.50
2023-03-24T07:44:41.327Z,6.50
2023-03-24T07:47:09.630Z,6.60
2023-03-24T07:49:39.360Z,6.70
2023-03-24T07:52:07.678Z,6.80
2023-03-24T07:54:35.992Z,6.90
2023-03-24T07:57:04.351Z,7.00
2023-03-24T07:59:34.247Z,7.10
2023-03-24T08:02:02.529Z,7.10
2023-03-24T08:04:32.666Z,7.20
2023-03-24T08:07:02.282Z,7.20
2023-03-24T08:09:30.465Z,7.30
2023-03-24T08:12:04.356Z,7.30
2023-03-24T08:14:41.859Z,7.30
2023-03-24T08:17:10.007Z,7.30
2023-03-24T08:19:45.385Z,7.40
2023-03-24T08:22:21.992Z,7.50
2023-03-24T08:24:50.267Z,7.50
2023-03-24T08:27:18.431Z,7.60
2023-03-24T08:29:46.760Z,7.60
2023-03-24T08:32:15.202Z,7.60
2023-03-24T08:34:43.364Z,7.70
2023-03-24T08:37:12.113Z,7.80
2023-03-24T08:39:41.895Z,7.90
2023-03-24T08:42:10.142Z,7.80
2023-03-24T08:44:38.395Z,7.80
2023-03-24T08:47:06.639Z,7.70
2023-03-24T08:49:34.839Z,7.60
2023-03-24T08:52:03.208Z,7.60
2023-03-24T08:54:31.595Z,7.50
2023-03-24T08:57:01.357Z,7.50
2023-03-24T08:59:29.467Z,7.50
2023-03-24T09:01:57.796Z,7.50
2023-03-24T09:04:26.535Z,7.50
2023-03-24T09:07:02.423Z,7.50
2023-03-24T09:09:31.497Z,7.50
2023-03-24T09:11:59.957Z,7.60
2023-03-24T09:14:31.913Z,7.50
2023-03-24T09:17:00.604Z,7.50
2023-03-24T09:19:28.966Z,7.50
2023-03-24T09:21:57.111Z,7.40
2023-03-24T09:24:25.591Z,7.40
2023-03-24T09:26:53.855Z,7.40
2023-03-24T09:29:22.067Z,7.40
2023-03-24T09:31:53.757Z,7.40
2023-03-24T09:34:22.177Z,7.30
2023-03-24T09:36:50.861Z,7.30
2023-03-24T09:39:20.167Z,7.30
2023-03-24T09:41:50.804Z,7.30
2023-03-24T09:44:24.323Z,7.30
2023-03-24T09:46:56.057Z,7.30
2023-03-24T09:49:25.461Z,7.30
2023-03-24T09:51:55.126Z,7.40
2023-03-24T09:54:27.904Z,7.50
2023-03-24T09:56:57.111Z,7.60
2023-03-24T09:59:31.011Z,7.80
2023-03-24T10:02:00.744Z,7.90
2023-03-24T10:04:32.263Z,8.00
2023-03-24T10:07:03.153Z,8.10
2023-03-24T10:09:32.480Z,8.20
2023-03-24T10:12:07.078Z,8.30
2023-03-24T10:14:42.588Z,8.50
2023-03-24T10:17:16.117Z,8.60
2023-03-24T10:19:47.505Z,8.70
2023-03-24T10:22:19.302Z,8.80
2023-03-24T10:24:50.096Z,8.80
2023-03-24T10:27:21.527Z,8.80
2023-03-24T10:29:51.062Z,8.90
2023-03-24T10:32:22.572Z,8.90
2023-03-24T10:34:52.547Z,8.90
2023-03-24T10:37:21.211Z,8.90
2023-03-24T10:39:49.638Z,8.80
2023-03-24T10:42:22.099Z,8.70
2023-03-24T10:44:52.581Z,8.70
2023-03-24T10:47:25.766Z,8.60
2023-03-24T10:49:54.812Z,8.40
2023-03-24T10:52:24.635Z,8.50
2023-03-24T10:54:57.635Z,8.40
2023-03-24T10:57:26.262Z,8.30
2023-03-24T10:59:56.163Z,8.40
2023-03-24T11:02:28.161Z,8.40
2023-03-24T11:04:58.272Z,8.50
2023-03-24T11:07:31.338Z,8.70
2023-03-24T11:10:02.017Z,8.70
2023-03-24T11:12:31.236Z,8.80
2023-03-24T11:15:14.174Z,9.00
2023-03-24T11:17:56.643Z,9.10
2023-03-24T11:20:28.661Z,9.10
2023-03-24T11:23:03.906Z,9.20
2023-03-24T11:25:34.529Z,9.30
2023-03-24T11:28:04.483Z,9.30
2023-03-24T11:30:35.181Z,9.20
2023-03-24T11:33:07.422Z,9.20
2023-03-24T11:35:41.847Z,9.30
2023-03-24T11:38:16.722Z,9.20
2023-03-24T11:40:54.126Z,9.10
2023-03-24T11:43:22.761Z,9.10
2023-03-24T11:45:55.306Z,9.10
2023-03-24T11:48:27.576Z,9.20
2023-03-24T11:50:57.958Z,9.10
2023-03-24T11:53:28.504Z,9.10
2023-03-24T11:56:00.913Z,9.10
2023-03-24T11:58:32.491Z,9.00
2023-03-24T12:01:04.232Z,9.10
2023-03-24T12:03:49.229Z,9.00
2023-03-24T12:06:23.697Z,9.10
2023-03-24T12:08:56.544Z,9.10
2023-03-24T12:11:28.627Z,9.10
2023-03-24T12:13:58.340Z,9.10
2023-03-24T12:16:33.844Z,9.20
2023-03-24T12:19:22.887Z,9.20
2023-03-24T12:21:57.467Z,9.30
2023-03-24T12:24:30.912Z,9.30
2023-03-24T12:27:00.599Z,9.30
2023-03-24T12:29:48.598Z,9.30
2023-03-24T12:32:25.698Z,9.10
2023-03-24T12:35:12.745Z,9.20
2023-03-24T12:37:48.666Z,9.20
2023-03-24T12:40:37.934Z,9.30
2023-03-24T12:43:11.680Z,9.20
2023-03-24T12:45:43.426Z,9.00
2023-03-24T12:48:26.839Z,9.10
2023-03-24T12:51:03.472Z,9.10
2023-03-24T12:53:41.904Z,9.20
2023-03-24T12:56:11.804Z,9.20
2023-03-24T12:58:43.139Z,9.30
2023-03-24T13:01:14.959Z,9.20
2023-03-24T13:03:45.788Z,9.20
2023-03-24T13:06:19.568Z,9.20
2023-03-24T13:08:54.051Z,9.10
2023-03-24T13:11:32.695Z,9.10
2023-03-24T13:14:05.551Z,9.00
2023-03-24T13:16:35.814Z,9.10
2023-03-24T13:19:04.013Z,9.00
2023-03-24T13:21:35.473Z,9.00
2023-03-24T13:24:09.387Z,9.00
2023-03-24T13:26:39.998Z,8.20
2023-03-24T13:29:17.454Z,7.60
2023-03-24T13:31:47.237Z,7.60
2023-03-24T13:34:24.016Z,7.50
2023-03-24T13:36:55.869Z,7.50
2023-03-24T13:39:27.160Z,7.20
2023-03-24T13:41:57.015Z,6.80
2023-03-24T13:44:26.492Z,7.10
2023-03-24T13:47:09.531Z,7.10
2023-03-24T13:49:37.885Z,7.10
2023-03-24T13:52:07.646Z,7.30
2023-03-24T13:54:38.427Z,7.30
2023-03-24T13:57:08.272Z,7.20
2023-03-24T13:59:41.353Z,6.90
2023-03-24T14:02:27.417Z,6.90
2023-03-24T14:05:06.400Z,7.10
2023-03-24T14:07:43.114Z,6.80
2023-03-24T14:13:19.398Z,6.60
2023-03-24T14:15:50.536Z,6.20
2023-03-24T14:18:34.453Z,6.20
2023-03-24T14:21:04.080Z,6.00
2023-03-24T14:23:35.519Z,5.80
2023-03-24T14:26:05.473Z,5.80
2023-03-24T14:28:38.175Z,5.70
2023-03-24T14:31:13.455Z,5.60
2023-03-24T14:33:42.315Z,5.60
2023-03-24T14:36:12.332Z,5.40
2023-03-24T14:38:42.304Z,5.40
2023-03-24T14:41:14.010Z,5.30
2023-03-24T14:43:57.392Z,5.50
2023-03-24T14:46:36.763Z,5.50
2023-03-24T14:49:07.613Z,5.60
2023-03-24T14:51:42.459Z,5.50
2023-03-24T14:54:16.689Z,5.70
2023-03-24T14:56:47.280Z,5.60
2023-03-24T14:59:23.074Z,5.40
2023-03-24T15:01:52.309Z,5.30
2023-03-24T15:04:20.470Z,5.10
2023-03-24T15:06:49.223Z,4.80
2023-03-24T15:09:19.012Z,4.80
2023-03-24T15:11:48.115Z,4.90
2023-03-24T15:14:21.275Z,4.80
2023-03-24T15:16:55.358Z,4.90
2023-03-24T15:19:24.428Z,4.60
2023-03-24T15:21:59.716Z,4.50
2023-03-24T15:24:33.210Z,4.50
2023-03-24T15:27:18.460Z,4.10
2023-03-24T15:29:46.993Z,3.80
2023-03-24T15:32:19.390Z,3.90
2023-03-24T15:34:49.716Z,4.00
2023-03-24T15:37:21.685Z,3.90
2023-03-24T15:39:50.692Z,3.60
2023-03-24T15:42:19.902Z,3.50
2023-03-24T15:44:48.232Z,3.60
2023-03-24T15:47:21.682Z,3.60
2023-03-24T15:49:51.715Z,3.60
2023-03-24T15:52:28.054Z,3.60
2023-03-24T15:54:57.498Z,3.40
2023-03-24T15:57:26.477Z,3.60
2023-03-24T15:59:58.377Z,3.30
2023-03-24T16:02:31.073Z,3.30
2023-03-24T16:05:10.810Z,3.40
2023-03-24T16:07:40.902Z,3.40
2023-03-24T16:10:26.514Z,3.60
2023-03-24T16:12:55.148Z,3.50
2023-03-24T16:15:23.414Z,3.60
2023-03-24T16:17:53.154Z,3.60
2023-03-24T16:20:23.421Z,3.50
2023-03-24T16:22:51.742Z,3.30
2023-03-24T16:25:19.907Z,3.40
2023-03-24T16:27:48.240Z,3.40
2023-03-24T16:30:20.318Z,3.30
2023-03-24T16:32:48.558Z,3.20
2023-03-24T16:35:18.512Z,3.10
2023-03-24T16:37:50.675Z,2.90
2023-03-24T16:40:21.369Z,2.90
2023-03-24T16:42:49.750Z,2.80
2023-03-24T16:45:17.843Z,2.70
2023-03-24T16:47:46.878Z,2.80
2023-03-24T16:50:27.436Z,2.70
2023-03-24T16:52:56.437Z,2.70
2023-03-24T16:55:28.793Z,2.80
2023-03-24T16:57:56.934Z,2.70
2023-03-24T17:00:25.194Z,2.60
2023-03-24T17:02:53.955Z,2.70
2023-03-24T17:05:24.386Z,2.70
2023-03-24T17:07:53.989Z,2.70
2023-03-24T17:10:22.686Z,2.60
2023-03-24T17:12:51.165Z,2.60
2023-03-24T17:15:21.481Z,2.60
2023-03-24T17:17:50.050Z,2.50
2023-03-24T17:20:18.661Z,2.50
2023-03-24T17:22:49.640Z,2.60
2023-03-24T17:25:21.292Z,2.60
2023-03-24T17:27:50.139Z,2.50
2023-03-24T17:30:22.100Z,2.50
2023-03-24T17:32:55.027Z,2.40
2023-03-24T17:35:24.216Z,2.50
2023-03-24T17:37:52.884Z,2.50
2023-03-24T17:40:22.714Z,2.50
2023-03-24T17:42:51.100Z,2.50
2023-03-24T17:45:20.411Z,2.60
2023-03-24T17:47:48.634Z,2.50
2023-03-24T17:50:16.763Z,2.60
2023-03-24T17:52:45.968Z,2.60
2023-03-24T17:55:14.945Z,2.60
2023-03-24T17:57:44.697Z,2.70
2023-03-24T18:00:14.600Z,2.60
2023-03-24T18:02:43.625Z,2.70
2023-03-24T18:05:12.622Z,2.60
2023-03-24T18:07:41.598Z,2.50
2023-03-24T18:10:10.360Z,2.50
2023-03-24T18:12:38.814Z,2.40
2023-03-24T18:15:09.206Z,2.40
2023-03-24T18:17:37.598Z,2.50
2023-03-24T18:20:10.728Z,2.40
2023-03-24T18:22:41.180Z,2.40
2023-03-24T18:25:13.560Z,2.50
2023-03-24T18:27:41.975Z,2.40
2023-03-24T18:30:13.357Z,2.40
2023-03-24T18:32:43.070Z,2.40
2023-03-24T18:35:16.450Z,2.50
2023-03-24T18:37:45.784Z,2.50
2023-03-24T18:40:15.811Z,2.50
2023-03-24T18:42:44.182Z,2.50
2023-03-24T18:45:17.991Z,2.60
2023-03-24T18:47:46.724Z,2.60
2023-03-24T18:50:15.453Z,2.60
2023-03-24T18:52:43.641Z,2.60
2023-03-24T18:55:11.939Z,2.70
2023-03-24T18:57:41.184Z,2.70
2023-03-24T19:00:11.017Z,2.70
2023-03-24T19:02:40.721Z,2.70
2023-03-24T19:05:10.257Z,2.60
2023-03-24T19:07:38.394Z,2.60
2023-03-24T19:10:06.931Z,2.60
2023-03-24T19:12:35.496Z,2.70
2023-03-24T19:15:04.679Z,2.70
2023-03-24T19:17:33.377Z,2.70
2023-03-24T19:20:05.212Z,2.70
2023-03-24T19:22:33.370Z,2.60
2023-03-24T19:25:01.591Z,2.60
2023-03-24T19:27:29.792Z,2.60
2023-03-24T19:29:58.025Z,2.60
2023-03-24T19:32:26.319Z,2.70
2023-03-24T19:34:54.490Z,2.70
2023-03-24T19:37:24.328Z,2.70
2023-03-24T19:39:53.159Z,2.80
2023-03-24T19:42:23.458Z,2.60
2023-03-24T19:44:51.852Z,2.60
2023-03-24T19:47:20.026Z,2.50
2023-03-24T19:49:48.345Z,2.50
2023-03-24T19:52:16.734Z,2.50
2023-03-24T19:54:46.341Z,2.40
2023-03-24T19:57:14.689Z,2.40
2023-03-24T19:59:42.814Z,2.40
2023-03-24T20:02:16.053Z,2.40
2023-03-24T20:04:44.615Z,2.40
2023-03-24T20:07:13.282Z,2.40
2023-03-24T20:09:43.711Z,2.40
2023-03-24T20:12:13.336Z,2.30
2023-03-24T20:14:41.826Z,2.30
2023-03-24T20:17:11.607Z,2.30
2023-03-24T20:19:39.918Z,2.30
2023-03-24T20:22:08.106Z,2.40
2023-03-24T20:24:37.944Z,2.30
2023-03-24T20:27:06.157Z,2.50
2023-03-24T20:29:36.436Z,2.40
2023-03-24T20:32:04.778Z,2.40
2023-03-24T20:34:33.439Z,2.40
2023-03-24T20:37:01.710Z,2.60
2023-03-24T20:39:29.961Z,2.60
2023-03-24T20:41:58.095Z,2.50
2023-03-24T20:44:26.392Z,2.50
2023-03-24T20:46:57.303Z,2.40
2023-03-24T20:49:26.642Z,2.60
2023-03-24T20:51:54.924Z,2.50
2023-03-24T20:54:23.330Z,2.60
2023-03-24T20:56:52.532Z,2.60
2023-03-24T20:59:22.532Z,2.40
2023-03-24T21:01:50.822Z,2.40
2023-03-24T21:04:20.664Z,2.20
2023-03-24T21:06:48.822Z,2.30
2023-03-24T21:09:17.238Z,2.20
2023-03-24T21:11:45.495Z,2.30
2023-03-24T21:14:13.794Z,2.30
2023-03-24T21:16:42.061Z,2.40
2023-03-24T21:19:13.328Z,2.20
2023-03-24T21:21:44.778Z,2.30
2023-03-24T21:24:18.581Z,2.20
2023-03-24T21:26:49.542Z,2.20
2023-03-24T21:29:18.081Z,2.10
2023-03-24T21:31:46.888Z,2.20
2023-03-24T21:34:15.086Z,2.10
2023-03-24T21:36:46.238Z,2.10
2023-03-24T21:39:14.396Z,2.10
2023-03-24T21:41:42.812Z,2.10
2023-03-24T21:44:11.047Z,2.00
2023-03-24T21:46:39.236Z,2.10
2023-03-24T21:49:11.238Z,2.10
2023-03-24T21:51:42.989Z,1.90
2023-03-24T21:54:15.055Z,1.90
2023-03-24T21:56:43.576Z,1.80
2023-03-24T21:59:11.973Z,1.90
2023-03-24T22:01:40.324Z,1.90
2023-03-24T22:04:08.957Z,1.70
2023-03-24T22:06:39.535Z,1.90
2023-03-24T22:09:10.283Z,1.90
2023-03-24T22:11:42.986Z,1.70
2023-03-24T22:14:12.636Z,1.70
2023-03-24T22:16:40.776Z,1.70
2023-03-24T22:19:09.059Z,1.60
2023-03-24T22:21:39.434Z,1.50
2023-03-24T22:24:08.092Z,1.60
2023-03-24T22:26:36.385Z,1.60
2023-03-24T22:29:06.294Z,1.60
2023-03-24T22:31:34.457Z,1.40
2023-03-24T22:34:02.665Z,1.50
2023-03-24T22:36:30.773Z,1.50
2023-03-24T22:38:59.202Z,1.40
2023-03-24T22:41:27.327Z,1.30
2023-03-24T22:43:55.481Z,1.10
2023-03-24T22:46:25.313Z,1.10
2023-03-24T22:48:53.464Z,1.10
2023-03-24T22:51:23.987Z,1.00
2023-03-24T22:53:52.681Z,1.20
2023-03-24T22:56:20.804Z,1.00
2023-03-24T22:58:49.074Z,1.10
2023-03-24T23:01:17.430Z,1.00
2023-03-24T23:03:47.230Z,1.00
2023-03-24T23:06:16.009Z,1.00
2023-03-24T23:08:45.128Z,1.00
2023-03-24T23:11:13.386Z,1.00
2023-03-24T23:13:41.661Z,0.90
2023-03-24T23:16:10.055Z,1.10
2023-03-24T23:18:38.479Z,1.10
2023-03-24T23:21:10.159Z,1.00
2023-03-24T23:23:40.223Z,0.90
2023-03-24T23:26:13.874Z,0.90
2023-03-24T23:28:54.752Z,1.10
2023-03-24T23:31:24.893Z,1.10
2023-03-24T23:33:54.163Z,1.10
2023-03-24T23:36:26.435Z,1.00
2023-03-24T23:38:55.010Z,1.10
2023-03-24T23:41:24.574Z,1.10
2023-03-24T23:43:53.688Z,1.00
2023-03-24T23:46:22.273Z,1.00
2023-03-24T23:48:51.017Z,1.20
2023-03-24T23:51:19.166Z,1.00
2023-03-24T23:53:48.757Z,1.00
2023-03-24T23:56:17.101Z,1.10
2023-03-24T23:58:45.330Z,1.10
